createdAt,value
2018-10-02T00:00:36.000Z,1013.16
2018-10-02T00:01:16.550Z,1013.18
2018-10-02T00:01:57.380Z,1013.21
2018-10-02T00:02:38.485Z,1013.18
2018-10-02T00:03:18.496Z,1013.2
2018-10-02T00:03:58.904Z,1013.23
2018-10-02T00:04:39.339Z,1013.18
2018-10-02T00:05:19.737Z,1013.2
2018-10-02T00:06:00.093Z,1013.2
2018-10-02T00:06:40.581Z,1013.19
2018-10-02T00:07:20.967Z,1013.16
2018-10-02T00:08:01.410Z,1013.19
2018-10-02T00:08:43.960Z,1013.2
2018-10-02T00:09:24.290Z,1013.19
2018-10-02T00:10:06.760Z,1013.15
2018-10-02T00:10:49.323Z,1013.14
2018-10-02T00:11:33.834Z,1013.14
2018-10-02T00:12:14.376Z,1013.08
2018-10-02T00:12:55.007Z,1013.12
2018-10-02T00:13:37.218Z,1013.13
2018-10-02T00:49:18.579Z,1013
2018-10-02T00:52:28.948Z,1012.95
2018-10-02T00:53:09.576Z,1012.95
2018-10-02T00:53:49.912Z,1012.98
2018-10-02T00:54:30.465Z,1012.97
2018-10-02T01:01:42.857Z,1012.8
2018-10-02T01:02:26.302Z,1012.83
2018-10-02T01:03:10.674Z,1012.77
2018-10-02T01:03:51.123Z,1012.75
2018-10-02T01:04:31.748Z,1012.74
2018-10-02T01:05:16.496Z,1012.76
2018-10-02T01:05:57.695Z,1012.68
2018-10-02T01:06:40.440Z,1012.72
2018-10-02T01:07:23.079Z,1012.7
2018-10-02T01:08:03.405Z,1012.7
2018-10-02T01:08:43.929Z,1012.68
2018-10-02T01:09:25.772Z,1012.74
2018-10-02T01:15:51.124Z,1012.79
2018-10-02T01:16:34.683Z,1012.82
2018-10-02T01:17:15.194Z,1012.78
2018-10-02T01:18:05.703Z,1012.77
2018-10-02T01:18:49.831Z,1012.74
2018-10-02T01:19:32.320Z,1012.69
2018-10-02T01:28:17.397Z,1012.64
2018-10-02T01:28:58.147Z,1012.65
2018-10-02T01:29:43.608Z,1012.62
2018-10-02T01:30:24.006Z,1012.64
2018-10-02T01:31:06.350Z,1012.69
2018-10-02T01:31:52.243Z,1012.66
2018-10-02T01:32:36.495Z,1012.68
2018-10-02T01:33:33.731Z,1012.71
2018-10-02T01:38:35.712Z,1012.63
2018-10-02T01:39:14.479Z,1012.63
2018-10-02T01:39:54.955Z,1012.65
2018-10-02T01:40:35.779Z,1012.68
2018-10-02T01:41:16.784Z,1012.71
2018-10-02T01:41:57.070Z,1012.67
2018-10-02T01:42:37.429Z,1012.72
2018-10-02T01:43:17.991Z,1012.65
2018-10-02T01:43:58.776Z,1012.64
2018-10-02T01:44:39.112Z,1012.66
2018-10-02T01:45:20.643Z,1012.67
2018-10-02T01:46:01.035Z,1012.66
2018-10-02T01:46:41.747Z,1012.69
2018-10-02T01:47:24.888Z,1012.66
2018-10-02T01:48:05.150Z,1012.61
2018-10-02T01:48:45.615Z,1012.61
2018-10-02T01:49:26.481Z,1012.49
2018-10-02T01:50:06.824Z,1012.47
2018-10-02T01:50:54.022Z,1012.46
2018-10-02T01:51:32.671Z,1012.41
2018-10-02T01:52:13.067Z,1012.4
2018-10-02T01:52:55.630Z,1012.46
2018-10-02T01:57:53.554Z,1012.51
2018-10-02T01:58:35.606Z,1012.51
2018-10-02T01:59:15.924Z,1012.47
2018-10-02T01:59:56.884Z,1012.47
2018-10-02T02:00:37.493Z,1012.47
2018-10-02T02:01:17.830Z,1012.46
2018-10-02T02:01:59.952Z,1012.48
2018-10-02T02:02:40.528Z,1012.45
2018-10-02T02:03:21.042Z,1012.49
2018-10-02T02:04:01.989Z,1012.46
2018-10-02T02:04:42.341Z,1012.51
2018-10-02T02:05:22.737Z,1012.46
2018-10-02T02:06:04.697Z,1012.47
2018-10-02T02:06:45.229Z,1012.42
2018-10-02T02:07:25.606Z,1012.45
2018-10-02T02:08:06.775Z,1012.41
2018-10-02T02:08:47.396Z,1012.37
2018-10-02T02:09:27.829Z,1012.33
2018-10-02T02:10:08.335Z,1012.36
2018-10-02T02:10:49.016Z,1012.36
2018-10-02T02:13:30.668Z,1012.35
2018-10-02T02:19:27.275Z,1012.33
2018-10-02T02:20:08.155Z,1012.35
2018-10-02T02:20:49.211Z,1012.35
2018-10-02T02:21:29.551Z,1012.34
2018-10-02T02:22:10.052Z,1012.34
2018-10-02T02:22:50.414Z,1012.33
2018-10-02T02:23:30.894Z,1012.33
2018-10-02T02:24:11.585Z,1012.31
2018-10-02T02:24:52.117Z,1012.29
2018-10-02T02:25:33.318Z,1012.24
2018-10-02T02:26:18.172Z,1012.21
2018-10-02T02:26:59.237Z,1012.19
2018-10-02T02:27:39.464Z,1012.18
2018-10-02T02:28:22.361Z,1012.2
2018-10-02T02:29:03.674Z,1012.2
2018-10-02T02:29:44.236Z,1012.15
2018-10-02T02:30:24.580Z,1012.15
2018-10-02T02:31:05.000Z,1012.1
2018-10-02T02:31:45.550Z,1012.1
2018-10-02T02:32:26.563Z,1012.09
2018-10-02T02:33:07.058Z,1012.05
2018-10-02T02:33:48.412Z,1012.07
2018-10-02T02:34:29.472Z,1012.08
2018-10-02T02:35:10.147Z,1012.03
2018-10-02T02:35:50.531Z,1012.04
2018-10-02T02:36:30.995Z,1012.02
2018-10-02T02:37:12.324Z,1012.02
2018-10-02T02:37:53.541Z,1011.98
2018-10-02T02:38:34.651Z,1011.96
2018-10-02T02:39:14.794Z,1011.97
2018-10-02T02:39:55.207Z,1012.01
2018-10-02T02:40:36.352Z,1011.98
2018-10-02T02:41:18.076Z,1012
2018-10-02T02:41:58.852Z,1012
2018-10-02T02:42:39.244Z,1011.96
2018-10-02T02:43:22.280Z,1011.95
2018-10-02T02:44:03.520Z,1011.96
2018-10-02T02:44:43.702Z,1011.96
2018-10-02T02:45:26.624Z,1011.94
2018-10-02T02:46:05.078Z,1011.93
2018-10-02T02:46:45.525Z,1011.91
2018-10-02T02:47:26.456Z,1011.98
2018-10-02T02:48:09.646Z,1011.96
2018-10-02T02:48:51.298Z,1011.99
2018-10-02T02:49:31.355Z,1011.99
2018-10-02T02:50:12.243Z,1011.96
2018-10-02T02:50:52.357Z,1011.97
2018-10-02T02:51:32.936Z,1011.93
2018-10-02T02:52:13.553Z,1011.93
2018-10-02T02:52:54.380Z,1011.93
2018-10-02T02:53:35.088Z,1011.88
2018-10-02T02:54:15.301Z,1011.9
2018-10-02T02:54:55.847Z,1011.91
2018-10-02T02:55:36.135Z,1011.93
2018-10-02T02:56:16.981Z,1011.88
2018-10-02T02:56:58.415Z,1011.9
2018-10-02T02:57:38.674Z,1011.89
2018-10-02T02:58:19.297Z,1011.84
2018-10-02T02:59:00.022Z,1011.89
2018-10-02T02:59:40.541Z,1011.83
2018-10-02T03:00:21.214Z,1011.85
2018-10-02T03:01:01.624Z,1011.84
2018-10-02T03:01:41.965Z,1011.8
2018-10-02T03:02:22.772Z,1011.82
2018-10-02T03:03:03.129Z,1011.8
2018-10-02T03:03:43.572Z,1011.84
2018-10-02T03:04:23.856Z,1011.87
2018-10-02T03:05:04.773Z,1011.86
2018-10-02T03:05:48.112Z,1011.87
2018-10-02T03:06:28.506Z,1011.87
2018-10-02T03:07:09.167Z,1011.89
2018-10-02T03:07:49.825Z,1011.9
2018-10-02T03:08:29.994Z,1011.93
2018-10-02T03:09:10.656Z,1011.97
2018-10-02T03:09:51.146Z,1011.92
2018-10-02T03:10:31.745Z,1011.91
2018-10-02T03:11:12.512Z,1011.93
2018-10-02T03:11:53.011Z,1011.92
2018-10-02T03:12:33.682Z,1011.9
2018-10-02T03:13:14.108Z,1011.87
2018-10-02T03:13:54.570Z,1011.84
2018-10-02T03:14:35.160Z,1011.8
2018-10-02T03:15:15.408Z,1011.8
2018-10-02T03:15:55.874Z,1011.75
2018-10-02T03:16:36.202Z,1011.77
2018-10-02T03:17:16.904Z,1011.77
2018-10-02T03:17:57.564Z,1011.78
2018-10-02T03:18:37.849Z,1011.83
2018-10-02T03:19:18.222Z,1011.86
2018-10-02T03:19:58.859Z,1011.88
2018-10-02T03:20:39.098Z,1011.89
2018-10-02T03:21:20.364Z,1011.91
2018-10-02T03:22:00.489Z,1011.85
2018-10-02T03:22:40.824Z,1011.83
2018-10-02T03:23:21.446Z,1011.81
2018-10-02T03:24:01.931Z,1011.76
2018-10-02T03:24:42.530Z,1011.72
2018-10-02T03:25:22.958Z,1011.75
2018-10-02T03:26:03.807Z,1011.79
2018-10-02T03:26:44.534Z,1011.72
2018-10-02T03:27:24.785Z,1011.74
2018-10-02T03:28:05.203Z,1011.7
2018-10-02T03:28:45.785Z,1011.69
2018-10-02T03:29:26.188Z,1011.77
2018-10-02T03:30:06.670Z,1011.73
2018-10-02T03:30:47.283Z,1011.71
2018-10-02T03:31:27.926Z,1011.71
2018-10-02T03:32:08.069Z,1011.73
2018-10-02T03:32:48.399Z,1011.72
2018-10-02T03:33:31.266Z,1011.73
2018-10-02T03:34:11.720Z,1011.71
2018-10-02T03:34:52.113Z,1011.69
2018-10-02T03:35:32.479Z,1011.65
2018-10-02T03:36:14.514Z,1011.68
2018-10-02T03:36:55.531Z,1011.65
2018-10-02T03:37:34.980Z,1011.64
2018-10-02T03:38:15.415Z,1011.63
2018-10-02T03:38:55.923Z,1011.63
2018-10-02T03:39:36.600Z,1011.65
2018-10-02T03:40:16.765Z,1011.61
2018-10-02T03:40:57.256Z,1011.62
2018-10-02T03:41:38.192Z,1011.64
2018-10-02T03:42:18.622Z,1011.63
2018-10-02T03:42:58.983Z,1011.58
2018-10-02T03:43:39.803Z,1011.62
2018-10-02T03:44:20.225Z,1011.62
2018-10-02T03:45:00.794Z,1011.59
2018-10-02T03:45:41.300Z,1011.65
2018-10-02T03:46:21.649Z,1011.64
2018-10-02T03:47:02.136Z,1011.62
2018-10-02T03:47:42.586Z,1011.66
2018-10-02T03:48:22.932Z,1011.65
2018-10-02T03:49:03.450Z,1011.65
2018-10-02T03:49:44.021Z,1011.65
2018-10-02T03:50:24.385Z,1011.61
2018-10-02T03:51:04.915Z,1011.61
2018-10-02T03:51:45.333Z,1011.61
2018-10-02T03:52:25.800Z,1011.6
2018-10-02T03:53:06.509Z,1011.58
2018-10-02T03:53:46.785Z,1011.59
2018-10-02T03:54:27.533Z,1011.56
2018-10-02T03:55:07.866Z,1011.57
2018-10-02T03:55:48.186Z,1011.56
2018-10-02T03:56:28.634Z,1011.54
2018-10-02T03:57:09.331Z,1011.56
2018-10-02T03:57:49.741Z,1011.48
2018-10-02T03:58:30.456Z,1011.51
2018-10-02T03:59:10.989Z,1011.47
2018-10-02T03:59:51.567Z,1011.42
2018-10-02T04:00:32.103Z,1011.44
2018-10-02T04:01:12.595Z,1011.48
2018-10-02T04:01:52.893Z,1011.48
2018-10-02T04:02:34.066Z,1011.53
2018-10-02T04:03:14.637Z,1011.53
2018-10-02T04:03:55.251Z,1011.51
2018-10-02T04:04:36.056Z,1011.51
2018-10-02T04:05:18.019Z,1011.5
2018-10-02T04:05:56.825Z,1011.49
2018-10-02T04:06:37.414Z,1011.48
2018-10-02T04:07:18.247Z,1011.48
2018-10-02T04:07:58.694Z,1011.45
2018-10-02T04:08:39.861Z,1011.43
2018-10-02T04:09:24.971Z,1011.4
2018-10-02T04:10:02.530Z,1011.38
2018-10-02T04:10:42.860Z,1011.35
2018-10-02T04:11:25.090Z,1011.33
2018-10-02T04:12:05.699Z,1011.29
2018-10-02T04:12:54.887Z,1011.26
2018-10-02T04:13:32.166Z,1011.24
2018-10-02T04:14:13.031Z,1011.19
2018-10-02T04:14:53.274Z,1011.16
2018-10-02T04:15:33.708Z,1011.13
2018-10-02T04:16:15.122Z,1011.08
2018-10-02T04:16:55.304Z,1011.08
2018-10-02T04:17:35.747Z,1011.06
2018-10-02T04:18:18.089Z,1011.07
2018-10-02T04:18:59.398Z,1011.07
2018-10-02T04:19:39.575Z,1011.01
2018-10-02T04:20:21.459Z,1010.97
2018-10-02T04:21:02.020Z,1010.97
2018-10-02T04:21:42.732Z,1010.99
2018-10-02T04:22:23.349Z,1010.98
2018-10-02T04:23:03.743Z,1011.03
2018-10-02T04:23:44.300Z,1011.05
2018-10-02T04:24:25.460Z,1011.02
2018-10-02T04:25:06.518Z,1010.99
2018-10-02T05:06:31.423Z,1010.35
2018-10-02T05:07:23.702Z,1010.3
2018-10-02T05:08:16.382Z,1010.29
2018-10-02T05:09:11.733Z,1010.28
2018-10-02T05:10:09.636Z,1010.34
2018-10-02T05:11:02.789Z,1010.34
2018-10-02T05:11:54.851Z,1010.35
2018-10-02T05:12:49.247Z,1010.3
2018-10-02T05:13:47.416Z,1010.3
2018-10-02T05:15:50.255Z,1010.33
2018-10-02T05:16:43.252Z,1010.33
2018-10-02T05:17:35.385Z,1010.35
2018-10-02T05:18:33.345Z,1010.33
2018-10-02T05:19:31.899Z,1010.36
2018-10-02T05:20:27.786Z,1010.28
2018-10-02T05:21:25.975Z,1010.28
2018-10-02T05:22:17.516Z,1010.33
2018-10-02T05:23:11.895Z,1010.36
2018-10-02T05:24:04.866Z,1010.43
2018-10-02T05:24:56.823Z,1010.44
2018-10-02T05:25:53.086Z,1010.45
2018-10-02T05:26:49.631Z,1010.41
2018-10-02T05:27:44.365Z,1010.38
2018-10-02T05:28:41.250Z,1010.4
2018-10-02T05:29:34.833Z,1010.36
2018-10-02T05:31:17.788Z,1010.37
2018-10-02T05:31:58.025Z,1010.41
2018-10-02T05:32:38.907Z,1010.38
2018-10-02T05:33:21.410Z,1010.41
2018-10-02T05:36:02.753Z,1010.3
2018-10-02T05:36:55.993Z,1010.26
2018-10-02T05:37:48.340Z,1010.23
2018-10-02T05:38:42.873Z,1010.21
2018-10-02T05:39:37.834Z,1010.18
2018-10-02T05:40:34.994Z,1010.19
2018-10-02T05:41:44.627Z,1010.14
2018-10-02T05:42:49.371Z,1010.19
2018-10-02T05:43:48.037Z,1010.25
2018-10-02T05:44:56.306Z,1010.22
2018-10-02T05:45:49.868Z,1010.19
2018-10-02T05:47:06.520Z,1010.17
2018-10-02T05:50:50.592Z,1010.02
2018-10-02T05:55:12.094Z,1010.14
2018-10-02T05:55:52.548Z,1010.13
2018-10-02T05:56:32.957Z,1010.1
2018-10-02T05:57:13.316Z,1010.07
2018-10-02T05:57:53.797Z,1010.07
2018-10-02T05:58:34.238Z,1010.04
2018-10-02T05:59:14.707Z,1010.07
2018-10-02T05:59:55.185Z,1010.09
2018-10-02T06:00:35.849Z,1010.14
2018-10-02T06:01:16.249Z,1010.16
2018-10-02T06:01:57.317Z,1010.17
2018-10-02T06:02:38.602Z,1010.15
2018-10-02T06:03:19.186Z,1010.17
2018-10-02T06:04:00.010Z,1010.12
2018-10-02T06:04:40.076Z,1010.06
2018-10-02T06:05:20.643Z,1010.05
2018-10-02T06:06:01.114Z,1010.01
2018-10-02T06:06:41.493Z,1010.06
2018-10-02T06:07:21.959Z,1010.01
2018-10-02T06:08:02.407Z,1010.07
2018-10-02T06:08:42.860Z,1010.04
2018-10-02T06:09:23.325Z,1010.07
2018-10-02T06:10:03.899Z,1010.07
2018-10-02T06:10:45.843Z,1010.06
2018-10-02T06:11:26.438Z,1010.08
2018-10-02T06:12:07.004Z,1010.06
2018-10-02T06:12:47.355Z,1009.99
2018-10-02T06:13:27.708Z,1010.01
2018-10-02T06:14:08.453Z,1009.98
2018-10-02T06:14:48.906Z,1009.97
2018-10-02T06:15:30.483Z,1009.92
2018-10-02T06:16:10.920Z,1009.94
2018-10-02T06:16:53.489Z,1009.86
2018-10-02T06:17:35.919Z,1009.86
2018-10-02T06:18:16.565Z,1009.89
2018-10-02T06:18:57.454Z,1009.84
2018-10-02T06:19:37.541Z,1009.84
2018-10-02T06:20:18.289Z,1009.86
2018-10-02T06:20:59.006Z,1009.87
2018-10-02T06:21:39.285Z,1009.91
2018-10-02T06:22:20.358Z,1009.92
2018-10-02T06:23:00.501Z,1009.93
2018-10-02T06:23:40.969Z,1009.91
2018-10-02T06:24:21.468Z,1009.91
2018-10-02T06:25:02.322Z,1009.89
2018-10-02T06:25:42.775Z,1009.89
2018-10-02T06:26:23.334Z,1009.89
2018-10-02T06:27:03.694Z,1009.97
2018-10-02T06:27:44.129Z,1009.86
2018-10-02T06:28:25.018Z,1009.92
2018-10-02T06:29:05.626Z,1009.91
2018-10-02T06:29:46.063Z,1009.89
2018-10-02T06:30:27.403Z,1009.96
2018-10-02T06:31:09.082Z,1009.96
2018-10-02T06:31:49.424Z,1009.93
2018-10-02T06:32:30.041Z,1009.97
2018-10-02T06:33:10.672Z,1009.89
2018-10-02T06:33:50.948Z,1009.94
2018-10-02T06:34:31.959Z,1009.96
2018-10-02T06:35:12.316Z,1009.94
2018-10-02T06:35:52.761Z,1009.95
2018-10-02T06:36:33.405Z,1009.95
2018-10-02T06:37:13.838Z,1009.93
2018-10-02T06:37:54.748Z,1009.92
2018-10-02T06:38:34.858Z,1009.97
2018-10-02T06:39:15.040Z,1009.95
2018-10-02T06:39:56.285Z,1009.97
2018-10-02T06:40:36.248Z,1009.93
2018-10-02T06:41:16.583Z,1009.94
2018-10-02T06:41:57.084Z,1009.94
2018-10-02T06:42:37.807Z,1009.95
2018-10-02T06:43:18.353Z,1009.94
2018-10-02T06:43:59.056Z,1009.9
2018-10-02T06:44:39.533Z,1009.9
2018-10-02T06:45:20.091Z,1009.89
2018-10-02T06:46:00.502Z,1009.96
2018-10-02T06:46:41.455Z,1009.95
2018-10-02T06:47:22.782Z,1009.96
2018-10-02T06:48:03.173Z,1009.99
2018-10-02T06:48:43.882Z,1010.01
2018-10-02T06:49:24.487Z,1009.96
2018-10-02T06:50:05.616Z,1009.95
2018-10-02T06:50:46.206Z,1009.95
2018-10-02T06:51:26.753Z,1009.92
2018-10-02T06:52:07.318Z,1009.95
2018-10-02T06:52:47.827Z,1009.95
2018-10-02T06:53:28.910Z,1009.91
2018-10-02T06:54:09.333Z,1009.88
2018-10-02T06:54:49.720Z,1009.86
2018-10-02T06:55:30.791Z,1009.88
2018-10-02T06:56:11.052Z,1009.88
2018-10-02T06:56:51.917Z,1009.86
2018-10-02T06:57:33.208Z,1009.8
2018-10-02T06:58:14.086Z,1009.85
2018-10-02T06:58:54.188Z,1009.8
2018-10-02T06:59:34.635Z,1009.83
2018-10-02T07:00:15.089Z,1009.83
2018-10-02T07:00:55.547Z,1009.83
2018-10-02T07:01:36.052Z,1009.86
2018-10-02T07:02:16.459Z,1009.89
2018-10-02T07:02:57.165Z,1009.89
2018-10-02T07:03:37.586Z,1009.89
2018-10-02T07:04:18.038Z,1009.9
2018-10-02T07:04:58.644Z,1009.9
2018-10-02T07:05:39.115Z,1009.88
2018-10-02T07:06:19.421Z,1009.85
2018-10-02T07:07:00.608Z,1009.79
2018-10-02T07:07:41.095Z,1009.86
2018-10-02T07:08:21.526Z,1009.77
2018-10-02T07:09:02.618Z,1009.72
2018-10-02T07:09:43.206Z,1009.67
2018-10-02T07:10:23.673Z,1009.67
2018-10-02T07:11:04.170Z,1009.64
2018-10-02T07:11:44.699Z,1009.65
2018-10-02T07:12:25.896Z,1009.68
2018-10-02T07:13:05.799Z,1009.62
2018-10-02T07:13:46.380Z,1009.57
2018-10-02T07:14:28.104Z,1009.57
2018-10-02T07:15:08.528Z,1009.52
2018-10-02T07:15:48.811Z,1009.53
2018-10-02T07:16:29.330Z,1009.5
2018-10-02T07:17:09.586Z,1009.49
2018-10-02T07:17:50.183Z,1009.49
2018-10-02T07:18:30.622Z,1009.47
2018-10-02T07:19:11.132Z,1009.49
2018-10-02T07:19:51.538Z,1009.48
2018-10-02T07:20:31.921Z,1009.49
2018-10-02T07:21:12.591Z,1009.59
2018-10-02T07:21:52.767Z,1009.57
2018-10-02T07:22:33.198Z,1009.58
2018-10-02T07:23:13.797Z,1009.55
2018-10-02T07:23:54.326Z,1009.52
2018-10-02T07:24:34.746Z,1009.47
2018-10-02T07:25:15.542Z,1009.42
2018-10-02T07:25:55.681Z,1009.46
2018-10-02T07:26:36.242Z,1009.49
2018-10-02T07:27:16.848Z,1009.54
2018-10-02T07:27:57.396Z,1009.55
2018-10-02T07:28:37.476Z,1009.54
2018-10-02T07:29:18.004Z,1009.57
2018-10-02T07:29:58.420Z,1009.62
2018-10-02T07:30:38.910Z,1009.6
2018-10-02T07:31:19.186Z,1009.66
2018-10-02T07:31:59.686Z,1009.59
2018-10-02T07:32:40.216Z,1009.59
2018-10-02T07:33:20.562Z,1009.58
2018-10-02T07:34:01.028Z,1009.6
2018-10-02T07:34:42.482Z,1009.58
2018-10-02T07:35:22.969Z,1009.6
2018-10-02T07:36:03.553Z,1009.53
2018-10-02T07:36:44.164Z,1009.45
2018-10-02T07:37:24.666Z,1009.46
2018-10-02T07:38:05.061Z,1009.45
2018-10-02T07:38:45.584Z,1009.41
2018-10-02T07:39:26.044Z,1009.39
2018-10-02T07:40:06.781Z,1009.39
2018-10-02T07:40:47.865Z,1009.49
2018-10-02T07:41:27.801Z,1009.36
2018-10-02T07:42:08.279Z,1009.33
2018-10-02T07:42:48.727Z,1009.28
2018-10-02T07:43:29.184Z,1009.19
2018-10-02T07:44:09.798Z,1009.18
2018-10-02T07:44:50.387Z,1009.18
2018-10-02T07:45:31.033Z,1009.14
2018-10-02T07:46:11.511Z,1009.21
2018-10-02T07:46:52.025Z,1009.23
2018-10-02T07:47:32.595Z,1009.27
2018-10-02T07:48:13.670Z,1009.25
2018-10-02T07:48:54.005Z,1009.27
2018-10-02T07:49:35.374Z,1009.28
2018-10-02T07:50:15.983Z,1009.29
2018-10-02T07:50:56.405Z,1009.34
2018-10-02T07:51:36.850Z,1009.3
2018-10-02T07:52:17.863Z,1009.26
2018-10-02T07:52:58.351Z,1009.27
2018-10-02T07:53:38.960Z,1009.26
2018-10-02T07:54:19.267Z,1009.19
2018-10-02T07:54:59.788Z,1009.17
2018-10-02T07:55:40.404Z,1009.15
2018-10-02T07:56:20.677Z,1009.15
2018-10-02T07:57:01.401Z,1009.1
2018-10-02T07:57:41.886Z,1009.04
2018-10-02T07:58:22.531Z,1009.04
2018-10-02T07:59:02.948Z,1009.06
2018-10-02T07:59:43.622Z,1009.1
2018-10-02T08:00:24.136Z,1009.12
2018-10-02T08:01:04.582Z,1009.06
2018-10-02T08:01:45.084Z,1009.01
2018-10-02T08:02:25.495Z,1009.05
2018-10-02T08:03:05.961Z,1009.05
2018-10-02T08:03:46.287Z,1009.06
2018-10-02T08:04:26.882Z,1009.06
2018-10-02T08:05:07.333Z,1009.05
2018-10-02T08:05:47.575Z,1009.01
2018-10-02T08:06:28.478Z,1008.98
2018-10-02T08:07:08.410Z,1008.97
2018-10-02T08:07:48.796Z,1008.98
2018-10-02T08:08:29.355Z,1008.96
2018-10-02T08:09:09.906Z,1008.98
2018-10-02T08:09:50.428Z,1008.92
2018-10-02T08:10:31.989Z,1008.84
2018-10-02T08:11:12.498Z,1008.9
2018-10-02T08:11:53.103Z,1008.9
2018-10-02T08:12:33.416Z,1008.97
2018-10-02T08:13:13.811Z,1008.91
2018-10-02T08:13:54.302Z,1008.93
2018-10-02T08:14:34.835Z,1008.96
2018-10-02T08:15:15.223Z,1008.92
2018-10-02T08:15:55.691Z,1008.88
2018-10-02T08:16:37.559Z,1008.91
2018-10-02T08:17:17.717Z,1008.95
2018-10-02T08:17:58.369Z,1008.94
2018-10-02T08:18:38.867Z,1008.95
2018-10-02T08:19:19.321Z,1009.03
2018-10-02T08:19:59.945Z,1008.98
2018-10-02T08:20:40.426Z,1009.1
2018-10-02T08:21:20.862Z,1009.1
2018-10-02T08:22:01.247Z,1009.16
2018-10-02T08:22:41.659Z,1009.16
2018-10-02T08:23:22.119Z,1009.2
2018-10-02T08:24:02.744Z,1009.22
2018-10-02T08:24:43.167Z,1009.24
2018-10-02T08:25:23.719Z,1009.28
2018-10-02T08:26:04.882Z,1009.31
2018-10-02T08:26:44.821Z,1009.32
2018-10-02T08:27:25.205Z,1009.37
2018-10-02T08:28:05.807Z,1009.38
2018-10-02T08:28:46.770Z,1009.43
2018-10-02T08:29:27.955Z,1009.48
2018-10-02T08:30:08.369Z,1009.48
2018-10-02T08:30:48.705Z,1009.45
2018-10-02T08:31:29.177Z,1009.47
2018-10-02T08:32:09.491Z,1009.42
2018-10-02T08:32:50.276Z,1009.44
2018-10-02T08:33:31.152Z,1009.46
2018-10-02T08:34:11.899Z,1009.47
2018-10-02T08:34:54.004Z,1009.46
2018-10-02T08:35:33.778Z,1009.46
2018-10-02T08:36:14.493Z,1009.46
2018-10-02T08:36:55.983Z,1009.48
2018-10-02T08:37:36.689Z,1009.44
2018-10-02T08:38:20.240Z,1009.41
2018-10-02T08:39:01.144Z,1009.48
2018-10-02T08:39:42.933Z,1009.41
2018-10-02T08:40:24.003Z,1009.21
2018-10-02T08:41:07.534Z,1009.4
2018-10-02T08:41:46.402Z,1009.31
2018-10-02T08:42:27.324Z,1009.3
2018-10-02T08:43:08.487Z,1009.41
2018-10-02T08:43:52.721Z,1009.41
2018-10-02T08:44:32.277Z,1009.38
2018-10-02T08:45:13.912Z,1009.25
2018-10-02T08:45:54.241Z,1009.25
2018-10-02T08:46:34.567Z,1009.27
2018-10-02T08:47:15.489Z,1009.23
2018-10-02T08:47:55.967Z,1009.18
2018-10-02T08:48:36.340Z,1009.18
2018-10-02T08:49:17.429Z,1009.17
2018-10-02T08:49:58.136Z,1009.14
2018-10-02T08:50:38.529Z,1009.08
2018-10-02T08:51:18.772Z,1009.13
2018-10-02T08:51:59.545Z,1009.13
2018-10-02T08:52:40.014Z,1009.12
2018-10-02T08:53:20.466Z,1009.07
2018-10-02T08:54:01.012Z,1009.12
2018-10-02T08:54:41.583Z,1009
2018-10-02T08:55:22.010Z,1008.93
2018-10-02T08:56:02.576Z,1008.94
2018-10-02T08:56:43.452Z,1009.07
2018-10-02T08:57:24.087Z,1009.06
2018-10-02T08:58:05.273Z,1009.05
2018-10-02T08:58:48.735Z,1009.07
2018-10-02T08:59:29.282Z,1009.06
2018-10-02T09:00:10.907Z,1008.97
2018-10-02T09:00:52.965Z,1009.03
2018-10-02T09:01:33.564Z,1009.01
2018-10-02T09:02:14.879Z,1009.02
2018-10-02T09:02:56.574Z,1009.02
2018-10-02T09:03:36.837Z,1008.93
2018-10-02T09:04:17.487Z,1008.95
2018-10-02T09:04:58.367Z,1009
2018-10-02T09:05:39.288Z,1008.98
2018-10-02T09:06:20.974Z,1009
2018-10-02T09:07:02.179Z,1009.01
2018-10-02T09:07:43.378Z,1009
2018-10-02T09:08:24.344Z,1009.05
2018-10-02T09:09:04.980Z,1009
2018-10-02T09:09:46.911Z,1009.04
2018-10-02T09:10:29.203Z,1009.07
2018-10-02T09:11:10.280Z,1009.09
2018-10-02T09:11:58.101Z,1009.07
2018-10-02T09:12:39.088Z,1009.09
2018-10-02T09:13:20.392Z,1009.13
2018-10-02T09:14:01.406Z,1009.12
2018-10-02T09:14:42.544Z,1009.11
2018-10-02T09:15:23.499Z,1009.1
2018-10-02T09:16:04.303Z,1009.1
2018-10-02T09:16:45.415Z,1009.12
2018-10-02T09:17:28.162Z,1009.04
2018-10-02T09:18:10.481Z,1009.06
2018-10-02T09:18:52.697Z,1009.02
2018-10-02T09:19:33.506Z,1009.04
2018-10-02T09:20:13.896Z,1009.05
2018-10-02T09:20:57.495Z,1009.08
2018-10-02T09:21:37.306Z,1009.02
2018-10-02T09:22:16.752Z,1009.02
2018-10-02T09:22:58.899Z,1009.06
2018-10-02T09:23:40.649Z,1009.02
2018-10-02T09:24:21.635Z,1009.06
2018-10-02T09:25:02.188Z,1009.04
2018-10-02T09:25:43.027Z,1008.98
2018-10-02T09:26:23.655Z,1009
2018-10-02T09:27:04.736Z,1009
2018-10-02T09:27:45.252Z,1008.99
2018-10-02T09:28:25.645Z,1009
2018-10-02T09:29:06.067Z,1009.01
2018-10-02T09:29:46.741Z,1009.06
2018-10-02T09:30:27.267Z,1009.01
2018-10-02T09:31:07.748Z,1009.08
2018-10-02T09:31:48.850Z,1009.02
2018-10-02T09:32:28.962Z,1009.06
2018-10-02T09:33:09.553Z,1009.02
2018-10-02T09:33:50.890Z,1009.1
2018-10-02T09:34:31.295Z,1009.04
2018-10-02T09:35:12.405Z,1008.97
2018-10-02T09:35:52.283Z,1009.08
2018-10-02T09:36:32.905Z,1009.12
2018-10-02T09:37:13.870Z,1009.06
2018-10-02T09:37:54.825Z,1009.14
2018-10-02T09:38:35.230Z,1009.2
2018-10-02T09:39:16.961Z,1009.14
2018-10-02T09:39:57.291Z,1009.12
2018-10-02T09:40:37.888Z,1009.02
2018-10-02T09:41:18.815Z,1009.07
2018-10-02T09:41:59.113Z,1009.12
2018-10-02T09:42:39.591Z,1009.05
2018-10-02T09:43:21.410Z,1009.04
2018-10-02T09:44:01.925Z,1009.04
2018-10-02T09:44:42.711Z,1009.08
2018-10-02T09:45:23.711Z,1008.99
2018-10-02T09:46:04.202Z,1008.99
2018-10-02T09:46:44.889Z,1009.01
2018-10-02T09:47:25.917Z,1008.99
2018-10-02T09:48:07.341Z,1009
2018-10-02T09:48:47.946Z,1008.99
2018-10-02T09:49:28.512Z,1008.99
2018-10-02T09:50:09.013Z,1009.02
2018-10-02T09:50:49.613Z,1009
2018-10-02T09:51:30.610Z,1008.98
2018-10-02T09:52:11.412Z,1009.02
2018-10-02T09:52:51.898Z,1008.93
2018-10-02T09:53:32.456Z,1008.97
2018-10-02T09:54:14.546Z,1008.97
2018-10-02T09:54:57.690Z,1008.97
2018-10-02T09:57:36.234Z,1008.96
2018-10-02T09:58:17.220Z,1008.87
2018-10-02T09:58:58.072Z,1008.92
2018-10-02T09:59:38.380Z,1008.86
2018-10-02T10:00:19.382Z,1008.83
2018-10-02T10:00:59.992Z,1008.86
2018-10-02T10:01:40.367Z,1008.86
2018-10-02T10:02:20.852Z,1008.87
2018-10-02T10:03:01.470Z,1008.9
2018-10-02T10:03:42.660Z,1008.93
2018-10-02T10:04:23.320Z,1008.9
2018-10-02T10:05:04.147Z,1008.87
2018-10-02T10:05:45.012Z,1008.9
2018-10-02T10:06:26.565Z,1008.91
2018-10-02T10:07:07.018Z,1008.92
2018-10-02T10:07:48.508Z,1008.94
2018-10-02T10:08:28.637Z,1008.93
2018-10-02T10:09:09.084Z,1008.96
2018-10-02T10:09:50.063Z,1008.89
2018-10-02T10:10:31.485Z,1008.93
2018-10-02T10:11:14.105Z,1008.93
2018-10-02T10:11:52.966Z,1008.88
2018-10-02T10:12:33.795Z,1008.92
2018-10-02T10:13:14.243Z,1008.93
2018-10-02T10:13:56.565Z,1008.95
2018-10-02T10:14:39.237Z,1008.89
2018-10-02T10:15:19.703Z,1008.92
2018-10-02T10:16:00.309Z,1008.9
2018-10-02T10:16:46.766Z,1008.94
2018-10-02T10:17:24.756Z,1008.93
2018-10-02T10:18:05.353Z,1008.9
2018-10-02T10:18:46.129Z,1008.93
2018-10-02T10:19:26.787Z,1008.93
2018-10-02T10:20:07.754Z,1008.93
2018-10-02T10:20:48.287Z,1008.93
2018-10-02T10:21:28.833Z,1008.96
2018-10-02T10:22:09.459Z,1008.92
2018-10-02T10:22:49.891Z,1008.93
2018-10-02T10:23:30.537Z,1008.81
2018-10-02T10:24:11.458Z,1008.87
2018-10-02T10:24:53.208Z,1008.85
2018-10-02T10:25:33.036Z,1008.9
2018-10-02T10:26:13.407Z,1008.85
2018-10-02T10:26:54.907Z,1008.83
2018-10-02T10:27:34.943Z,1008.84
2018-10-02T10:28:16.143Z,1008.85
2018-10-02T11:08:22.547Z,1008.37
2018-10-02T11:09:03.631Z,1008.35
2018-10-02T11:09:43.439Z,1008.28
2018-10-02T11:10:23.881Z,1008.2
2018-10-02T11:11:04.809Z,1008.26
2018-10-02T11:11:45.834Z,1008.24
2018-10-02T11:12:26.145Z,1008.26